AZO955 ULMM-UTAA
Flight info
| Callsign | AZO955 |
|---|---|
| Flight time | 5h 3m |
| Altitude | 33000 |
| Route | LOPRA1P LOPRA T822 SOTIS T825 ARGIP L93 BAPON/K0876F350 L93 OKAMO L991 REDKI P136 KUPOM N984 URUSU L162 ERUTA/K0863F370 L162 UZLOR L985 LATNU/K0859F360 DCT KURAB/N0463F360 DCT PODOK POD29A |
| Aircraft | B738/M-SDE2E3FGHIRWXY/LB1 |
Departure
| Time | 2026-04-26 02:21 |
|---|---|
| Airport | Emperor Nicholas II Murmansk Airport (ULMM) |
Arrival
| Time | 2026-04-26 07:25 |
|---|---|
| Airport | Ashgabat International Airport (UTAA) |
| Time | Latitude | Longitude | Altitude | Speed | Heading |
|---|---|---|---|---|---|
| 2026-04-26 02:00 | 68.78435 | 32.75256 | 253 ft | 0 kts | 146° |
| 2026-04-26 02:15 | 68.78427 | 32.75272 | 253 ft | 2 kts | 145° |
| 2026-04-26 02:15 | 68.78418 | 32.75289 | 253 ft | 3 kts | 144° |
| 2026-04-26 02:15 | 68.78385 | 32.75306 | 253 ft | 5 kts | 201° |
| 2026-04-26 02:15 | 68.78353 | 32.75204 | 253 ft | 0 kts | 237° |
| 2026-04-26 02:16 | 68.78351 | 32.75193 | 253 ft | 3 kts | 237° |
| 2026-04-26 02:16 | 68.78326 | 32.75090 | 253 ft | 10 kts | 236° |
| 2026-04-26 02:16 | 68.78269 | 32.74978 | 254 ft | 12 kts | 178° |
| 2026-04-26 02:16 | 68.78210 | 32.75070 | 253 ft | 16 kts | 139° |
| 2026-04-26 02:17 | 68.78137 | 32.75228 | 251 ft | 10 kts | 146° |
| 2026-04-26 02:17 | 68.78112 | 32.75273 | 251 ft | 2 kts | 147° |
| 2026-04-26 02:17 | 68.78074 | 32.75343 | 251 ft | 12 kts | 146° |
| 2026-04-26 02:17 | 68.77972 | 32.75528 | 253 ft | 22 kts | 147° |
| 2026-04-26 02:18 | 68.77814 | 32.75806 | 252 ft | 32 kts | 147° |
| 2026-04-26 02:18 | 68.77607 | 32.76185 | 251 ft | 38 kts | 146° |
| 2026-04-26 02:18 | 68.77484 | 32.76411 | 252 ft | 9 kts | 146° |
| 2026-04-26 02:18 | 68.77442 | 32.76518 | 252 ft | 9 kts | 115° |
| 2026-04-26 02:19 | 68.77440 | 32.76721 | 252 ft | 12 kts | 86° |
| 2026-04-26 02:19 | 68.77442 | 32.76991 | 253 ft | 15 kts | 107° |
| 2026-04-26 02:19 | 68.77352 | 32.77154 | 253 ft | 15 kts | 185° |
| 2026-04-26 02:19 | 68.77288 | 32.76944 | 252 ft | 14 kts | 253° |
| 2026-04-26 02:20 | 68.77300 | 32.76745 | 252 ft | 8 kts | 315° |
| 2026-04-26 02:20 | 68.77355 | 32.76647 | 251 ft | 12 kts | 328° |
| 2026-04-26 02:20 | 68.77489 | 32.76402 | 252 ft | 50 kts | 326° |
| 2026-04-26 02:20 | 68.78009 | 32.75445 | 252 ft | 127 kts | 327° |
| 2026-04-26 02:21 | 68.78926 | 32.73731 | 266 ft | 190 kts | 326° |
| 2026-04-26 02:21 | 68.80036 | 32.71563 | 1087 ft | 195 kts | 324° |
| 2026-04-26 02:21 | 68.81130 | 32.69488 | 2352 ft | 178 kts | 329° |
| 2026-04-26 02:21 | 68.82123 | 32.67662 | 3487 ft | 170 kts | 330° |
| 2026-04-26 02:22 | 68.83137 | 32.65805 | 3977 ft | 187 kts | 330° |
| 2026-04-26 02:22 | 68.84271 | 32.63727 | 4118 ft | 204 kts | 329° |
| 2026-04-26 02:22 | 68.85500 | 32.61441 | 4263 ft | 221 kts | 329° |
| 2026-04-26 02:22 | 68.86745 | 32.58782 | 4599 ft | 233 kts | 313° |
| 2026-04-26 02:23 | 68.87436 | 32.54642 | 5047 ft | 247 kts | 281° |
| 2026-04-26 02:23 | 68.87190 | 32.49755 | 5327 ft | 271 kts | 245° |
| 2026-04-26 02:23 | 68.86155 | 32.45289 | 5623 ft | 281 kts | 237° |
| 2026-04-26 02:23 | 68.84991 | 32.40915 | 5609 ft | 282 kts | 228° |
| 2026-04-26 02:24 | 68.83373 | 32.37923 | 5613 ft | 280 kts | 199° |
| 2026-04-26 02:24 | 68.81462 | 32.37256 | 5618 ft | 279 kts | 172° |
| 2026-04-26 02:24 | 68.79626 | 32.38825 | 5611 ft | 277 kts | 148° |
| 2026-04-26 02:24 | 68.78015 | 32.41718 | 5622 ft | 276 kts | 143° |
| 2026-04-26 02:25 | 68.76436 | 32.44752 | 5621 ft | 278 kts | 142° |
| 2026-04-26 02:25 | 68.74847 | 32.47803 | 5616 ft | 279 kts | 143° |
| 2026-04-26 02:25 | 68.73241 | 32.50845 | 5607 ft | 279 kts | 143° |
| 2026-04-26 02:25 | 68.71659 | 32.53810 | 5603 ft | 279 kts | 143° |
| 2026-04-26 02:26 | 68.70057 | 32.56794 | 5599 ft | 278 kts | 143° |
| 2026-04-26 02:26 | 68.68481 | 32.59820 | 5598 ft | 275 kts | 136° |
| 2026-04-26 02:26 | 68.67390 | 32.63955 | 5647 ft | 266 kts | 109° |
| 2026-04-26 02:26 | 68.66916 | 32.68849 | 6076 ft | 266 kts | 98° |
| 2026-04-26 02:27 | 68.66570 | 32.73834 | 6727 ft | 267 kts | 97° |
| 2026-04-26 02:27 | 68.66228 | 32.78867 | 7362 ft | 268 kts | 97° |
| 2026-04-26 02:27 | 68.65880 | 32.83931 | 7980 ft | 272 kts | 97° |
| 2026-04-26 02:27 | 68.65522 | 32.89051 | 8649 ft | 274 kts | 97° |
| 2026-04-26 02:28 | 68.65156 | 32.94210 | 9300 ft | 276 kts | 98° |
| 2026-04-26 02:28 | 68.64785 | 32.99404 | 9866 ft | 281 kts | 98° |
| 2026-04-26 02:28 | 68.64393 | 33.04851 | 10023 ft | 300 kts | 98° |
| 2026-04-26 02:28 | 68.63972 | 33.10628 | 10194 ft | 318 kts | 98° |
| 2026-04-26 02:29 | 68.63481 | 33.16727 | 10344 ft | 338 kts | 106° |
| 2026-04-26 02:29 | 68.62294 | 33.22445 | 10610 ft | 356 kts | 130° |
| 2026-04-26 02:29 | 68.60492 | 33.27175 | 11157 ft | 361 kts | 136° |
| 2026-04-26 02:29 | 68.58621 | 33.31790 | 11764 ft | 363 kts | 136° |
| 2026-04-26 02:30 | 68.56751 | 33.36453 | 12386 ft | 365 kts | 135° |
| 2026-04-26 02:30 | 68.54873 | 33.41192 | 13011 ft | 368 kts | 135° |
| 2026-04-26 02:30 | 68.52993 | 33.45958 | 13618 ft | 371 kts | 135° |
| 2026-04-26 02:30 | 68.51133 | 33.50898 | 14212 ft | 373 kts | 133° |
| 2026-04-26 02:31 | 68.49331 | 33.55879 | 14785 ft | 376 kts | 132° |
| 2026-04-26 02:31 | 68.47474 | 33.61064 | 15393 ft | 378 kts | 132° |
| 2026-04-26 02:31 | 68.45648 | 33.66144 | 15954 ft | 381 kts | 132° |
| 2026-04-26 02:31 | 68.43782 | 33.71308 | 16530 ft | 384 kts | 132° |
| 2026-04-26 02:32 | 68.41892 | 33.76504 | 17106 ft | 387 kts | 133° |
| 2026-04-26 02:32 | 68.39987 | 33.81714 | 17671 ft | 391 kts | 133° |
| 2026-04-26 02:32 | 68.38062 | 33.86956 | 18172 ft | 394 kts | 133° |
| 2026-04-26 02:32 | 68.36120 | 33.92229 | 18640 ft | 397 kts | 133° |
| 2026-04-26 02:33 | 68.34158 | 33.97541 | 19125 ft | 400 kts | 133° |
| 2026-04-26 02:33 | 68.32180 | 34.02882 | 19584 ft | 403 kts | 133° |
| 2026-04-26 02:33 | 68.30186 | 34.08254 | 20046 ft | 406 kts | 133° |
| 2026-04-26 02:33 | 68.28176 | 34.13655 | 20502 ft | 409 kts | 133° |
| 2026-04-26 02:34 | 68.26147 | 34.19097 | 20944 ft | 412 kts | 133° |
| 2026-04-26 02:34 | 68.24105 | 34.24554 | 21379 ft | 416 kts | 133° |
| 2026-04-26 02:34 | 68.22042 | 34.30053 | 21804 ft | 419 kts | 134° |
| 2026-04-26 02:34 | 68.19961 | 34.35581 | 22232 ft | 422 kts | 134° |
| 2026-04-26 02:35 | 68.17864 | 34.41138 | 22648 ft | 425 kts | 134° |
| 2026-04-26 02:35 | 68.15750 | 34.46726 | 23045 ft | 428 kts | 134° |
| 2026-04-26 02:35 | 68.13618 | 34.52348 | 23390 ft | 431 kts | 134° |
| 2026-04-26 02:35 | 68.11471 | 34.57996 | 23702 ft | 433 kts | 134° |
| 2026-04-26 02:36 | 68.09314 | 34.63657 | 24008 ft | 436 kts | 134° |
| 2026-04-26 02:36 | 68.07163 | 34.69284 | 24285 ft | 439 kts | 135° |
| 2026-04-26 02:36 | 68.04968 | 34.75013 | 24574 ft | 442 kts | 135° |
| 2026-04-26 02:36 | 68.02755 | 34.80774 | 24861 ft | 444 kts | 135° |
| 2026-04-26 02:37 | 68.00529 | 34.86552 | 25135 ft | 448 kts | 135° |
| 2026-04-26 02:37 | 67.98289 | 34.92348 | 25362 ft | 451 kts | 135° |
| 2026-04-26 02:37 | 67.96027 | 34.98185 | 25658 ft | 453 kts | 136° |
| 2026-04-26 02:37 | 67.93757 | 35.04027 | 25924 ft | 456 kts | 136° |
| 2026-04-26 02:38 | 67.91466 | 35.09909 | 26147 ft | 459 kts | 136° |
| 2026-04-26 02:38 | 67.89164 | 35.15798 | 26445 ft | 460 kts | 136° |
| 2026-04-26 02:38 | 67.86851 | 35.21705 | 26671 ft | 463 kts | 136° |
| 2026-04-26 02:38 | 67.84516 | 35.27646 | 26893 ft | 466 kts | 136° |
| 2026-04-26 02:39 | 67.82176 | 35.33578 | 27184 ft | 467 kts | 137° |
| 2026-04-26 02:39 | 67.79817 | 35.39542 | 27408 ft | 469 kts | 137° |
| 2026-04-26 02:39 | 67.77453 | 35.45499 | 27643 ft | 472 kts | 137° |
| 2026-04-26 02:39 | 67.75070 | 35.51488 | 27899 ft | 473 kts | 137° |
| 2026-04-26 02:40 | 67.72684 | 35.57467 | 28219 ft | 473 kts | 137° |
| 2026-04-26 02:40 | 67.70300 | 35.63425 | 28568 ft | 472 kts | 137° |
| 2026-04-26 02:40 | 67.67917 | 35.69364 | 28917 ft | 472 kts | 137° |
| 2026-04-26 02:40 | 67.65533 | 35.75287 | 29232 ft | 472 kts | 137° |
| 2026-04-26 02:41 | 67.63174 | 35.81131 | 29539 ft | 472 kts | 137° |
| 2026-04-26 02:41 | 67.60783 | 35.87036 | 29806 ft | 472 kts | 138° |
| 2026-04-26 02:41 | 67.58395 | 35.92918 | 30064 ft | 471 kts | 138° |
| 2026-04-26 02:41 | 67.56005 | 35.98789 | 30325 ft | 470 kts | 138° |
| 2026-04-26 02:42 | 67.53619 | 36.04631 | 30571 ft | 470 kts | 138° |
| 2026-04-26 02:42 | 67.51226 | 36.10473 | 30807 ft | 470 kts | 138° |
| 2026-04-26 02:42 | 67.50416 | 36.12448 | 30886 ft | 470 kts | 138° |
| 2026-04-26 02:42 | 67.48895 | 36.16149 | 31044 ft | 470 kts | 138° |
| 2026-04-26 02:43 | 67.44116 | 36.27734 | 31518 ft | 469 kts | 138° |
| 2026-04-26 02:43 | 67.41723 | 36.33509 | 31745 ft | 468 kts | 138° |
| 2026-04-26 02:43 | 67.39328 | 36.39275 | 31968 ft | 468 kts | 138° |
| 2026-04-26 02:44 | 67.36937 | 36.45014 | 32190 ft | 468 kts | 138° |
| 2026-04-26 02:44 | 67.34542 | 36.50745 | 32422 ft | 467 kts | 138° |
| 2026-04-26 02:44 | 67.32149 | 36.56455 | 32575 ft | 468 kts | 138° |
| 2026-04-26 02:44 | 67.29742 | 36.62187 | 32552 ft | 471 kts | 138° |
| 2026-04-26 02:45 | 67.24969 | 36.73502 | 32552 ft | 467 kts | 139° |
| 2026-04-26 02:45 | 67.20181 | 36.84778 | 32576 ft | 464 kts | 139° |
| 2026-04-26 02:46 | 67.15414 | 36.95945 | 32558 ft | 463 kts | 139° |
| 2026-04-26 02:46 | 67.10650 | 37.07043 | 32557 ft | 462 kts | 139° |
| 2026-04-26 02:47 | 67.05876 | 37.18105 | 32566 ft | 462 kts | 139° |
| 2026-04-26 02:47 | 67.01093 | 37.29126 | 32560 ft | 463 kts | 139° |
| 2026-04-26 02:48 | 66.96291 | 37.40132 | 32553 ft | 465 kts | 139° |
| 2026-04-26 02:48 | 66.91489 | 37.51077 | 32550 ft | 466 kts | 139° |
| 2026-04-26 02:49 | 66.86628 | 37.62096 | 32550 ft | 468 kts | 139° |
| 2026-04-26 02:49 | 66.81748 | 37.73100 | 32549 ft | 469 kts | 140° |
| 2026-04-26 02:50 | 66.76851 | 37.84084 | 32547 ft | 470 kts | 140° |
| 2026-04-26 02:50 | 66.71930 | 37.95053 | 32546 ft | 471 kts | 140° |
| 2026-04-26 02:51 | 66.67040 | 38.05900 | 32545 ft | 471 kts | 140° |
| 2026-04-26 02:51 | 66.62110 | 38.16783 | 32543 ft | 471 kts | 140° |
| 2026-04-26 02:52 | 66.57185 | 38.27597 | 32539 ft | 470 kts | 140° |
| 2026-04-26 02:52 | 66.52259 | 38.38354 | 32545 ft | 469 kts | 140° |
| 2026-04-26 02:53 | 66.47325 | 38.49070 | 32544 ft | 468 kts | 140° |
| 2026-04-26 02:53 | 66.42409 | 38.59688 | 32542 ft | 467 kts | 141° |
| 2026-04-26 02:54 | 66.37487 | 38.70263 | 32546 ft | 466 kts | 141° |
| 2026-04-26 02:54 | 66.32565 | 38.80781 | 32547 ft | 466 kts | 141° |
| 2026-04-26 02:55 | 66.27631 | 38.91269 | 32546 ft | 466 kts | 141° |
| 2026-04-26 02:55 | 66.22725 | 39.01644 | 32546 ft | 466 kts | 141° |
| 2026-04-26 02:56 | 66.17782 | 39.12045 | 32546 ft | 467 kts | 141° |
| 2026-04-26 02:56 | 66.12821 | 39.22428 | 32545 ft | 467 kts | 141° |
| 2026-04-26 02:57 | 66.07829 | 39.32708 | 32547 ft | 468 kts | 142° |
| 2026-04-26 02:57 | 66.02808 | 39.42922 | 32545 ft | 468 kts | 142° |
| 2026-04-26 02:58 | 65.97788 | 39.53107 | 32546 ft | 469 kts | 142° |
| 2026-04-26 02:58 | 65.92752 | 39.63285 | 32546 ft | 469 kts | 142° |
| 2026-04-26 02:59 | 65.87731 | 39.73525 | 32549 ft | 469 kts | 141° |
| 2026-04-26 02:59 | 65.82733 | 39.83804 | 32547 ft | 469 kts | 141° |
| 2026-04-26 03:00 | 65.77758 | 39.93966 | 32545 ft | 469 kts | 142° |
| 2026-04-26 03:00 | 65.72738 | 40.04148 | 32553 ft | 469 kts | 142° |
| 2026-04-26 03:01 | 65.67325 | 40.12816 | 32561 ft | 465 kts | 157° |
| 2026-04-26 03:01 | 65.61189 | 40.17395 | 32562 ft | 461 kts | 169° |
| 2026-04-26 03:02 | 65.54909 | 40.20730 | 32557 ft | 461 kts | 169° |
| 2026-04-26 03:02 | 65.48653 | 40.24232 | 32545 ft | 462 kts | 169° |
| 2026-04-26 03:03 | 65.42390 | 40.27724 | 32550 ft | 462 kts | 169° |
| 2026-04-26 03:03 | 65.36166 | 40.31096 | 32552 ft | 462 kts | 169° |
| 2026-04-26 03:04 | 65.30947 | 40.33912 | 32563 ft | 462 kts | 169° |
| 2026-04-26 03:04 | 65.23622 | 40.37859 | 32550 ft | 462 kts | 169° |
| 2026-04-26 03:05 | 65.18406 | 40.40661 | 32556 ft | 462 kts | 169° |
| 2026-04-26 03:05 | 65.12144 | 40.44009 | 32555 ft | 462 kts | 169° |
| 2026-04-26 03:06 | 65.04855 | 40.47887 | 32546 ft | 462 kts | 169° |
| 2026-04-26 03:06 | 64.99606 | 40.50681 | 32547 ft | 461 kts | 169° |
| 2026-04-26 03:07 | 64.93342 | 40.54033 | 32543 ft | 461 kts | 169° |
| 2026-04-26 03:07 | 64.87073 | 40.57374 | 32542 ft | 461 kts | 169° |
| 2026-04-26 03:08 | 64.80817 | 40.60688 | 32547 ft | 461 kts | 169° |
| 2026-04-26 03:08 | 64.74612 | 40.63958 | 32549 ft | 460 kts | 169° |
| 2026-04-26 03:09 | 64.68360 | 40.67239 | 32553 ft | 460 kts | 169° |
| 2026-04-26 03:09 | 64.62122 | 40.70665 | 32541 ft | 461 kts | 164° |
| 2026-04-26 03:10 | 64.56352 | 40.77188 | 32546 ft | 465 kts | 147° |
| 2026-04-26 03:10 | 64.51080 | 40.85927 | 32551 ft | 465 kts | 146° |
| 2026-04-26 03:11 | 64.45848 | 40.94585 | 32550 ft | 465 kts | 147° |
| 2026-04-26 03:11 | 64.40550 | 41.03175 | 32540 ft | 464 kts | 147° |
| 2026-04-26 03:12 | 64.35238 | 41.11698 | 32543 ft | 464 kts | 147° |
| 2026-04-26 03:12 | 64.29930 | 41.20177 | 32541 ft | 464 kts | 147° |
| 2026-04-26 03:13 | 64.24611 | 41.28643 | 32543 ft | 464 kts | 147° |
| 2026-04-26 03:13 | 64.19303 | 41.37064 | 32548 ft | 464 kts | 147° |
| 2026-04-26 03:14 | 64.14023 | 41.45435 | 32547 ft | 464 kts | 147° |
| 2026-04-26 03:14 | 64.08705 | 41.53813 | 32555 ft | 463 kts | 148° |
| 2026-04-26 03:15 | 64.03388 | 41.62144 | 32553 ft | 463 kts | 148° |
| 2026-04-26 03:15 | 63.98060 | 41.70460 | 32557 ft | 463 kts | 148° |
| 2026-04-26 03:16 | 63.92739 | 41.78730 | 32560 ft | 463 kts | 148° |
| 2026-04-26 03:16 | 63.87411 | 41.86976 | 32556 ft | 463 kts | 148° |
| 2026-04-26 03:17 | 63.82111 | 41.95127 | 32562 ft | 463 kts | 148° |
| 2026-04-26 03:17 | 63.76767 | 42.03302 | 32566 ft | 463 kts | 148° |
| 2026-04-26 03:18 | 63.71424 | 42.11443 | 32566 ft | 463 kts | 148° |
| 2026-04-26 03:18 | 63.66107 | 42.19514 | 32575 ft | 464 kts | 148° |
| 2026-04-26 03:19 | 63.60751 | 42.27608 | 32573 ft | 464 kts | 148° |
| 2026-04-26 03:19 | 63.55363 | 42.35711 | 32574 ft | 465 kts | 148° |
| 2026-04-26 03:20 | 63.49973 | 42.43796 | 32580 ft | 466 kts | 148° |
| 2026-04-26 03:20 | 63.44590 | 42.51842 | 32587 ft | 466 kts | 148° |
| 2026-04-26 03:21 | 63.39219 | 42.59834 | 32585 ft | 467 kts | 149° |
| 2026-04-26 03:21 | 63.33798 | 42.67865 | 32593 ft | 467 kts | 149° |
| 2026-04-26 03:22 | 63.28373 | 42.75863 | 32591 ft | 468 kts | 149° |
| 2026-04-26 03:22 | 63.22946 | 42.83829 | 32598 ft | 468 kts | 149° |
| 2026-04-26 03:23 | 63.17500 | 42.91783 | 32603 ft | 468 kts | 149° |
| 2026-04-26 03:23 | 63.12049 | 42.99711 | 32600 ft | 469 kts | 149° |
| 2026-04-26 03:24 | 63.06593 | 43.07610 | 32607 ft | 469 kts | 149° |
| 2026-04-26 03:24 | 63.01169 | 43.15426 | 32610 ft | 469 kts | 149° |
| 2026-04-26 03:25 | 62.95704 | 43.23266 | 32617 ft | 469 kts | 149° |
| 2026-04-26 03:25 | 62.90240 | 43.31070 | 32616 ft | 469 kts | 149° |
| 2026-04-26 03:26 | 62.84761 | 43.38859 | 32618 ft | 469 kts | 149° |
| 2026-04-26 03:26 | 62.79286 | 43.46607 | 32618 ft | 468 kts | 149° |
| 2026-04-26 03:27 | 62.73824 | 43.54305 | 32628 ft | 468 kts | 149° |
| 2026-04-26 03:27 | 62.68338 | 43.62002 | 32626 ft | 468 kts | 149° |
| 2026-04-26 03:28 | 62.62904 | 43.69595 | 32629 ft | 468 kts | 149° |
| 2026-04-26 03:28 | 62.57452 | 43.77322 | 32629 ft | 468 kts | 147° |
| 2026-04-26 03:29 | 62.52139 | 43.85490 | 32632 ft | 468 kts | 147° |
| 2026-04-26 03:29 | 62.46841 | 43.93694 | 32646 ft | 468 kts | 147° |
| 2026-04-26 03:30 | 62.41525 | 44.01800 | 32633 ft | 467 kts | 147° |
| 2026-04-26 03:30 | 62.36200 | 44.09833 | 32636 ft | 467 kts | 147° |
| 2026-04-26 03:31 | 62.30873 | 44.17831 | 32632 ft | 467 kts | 147° |
| 2026-04-26 03:31 | 62.25559 | 44.25777 | 32644 ft | 467 kts | 148° |
| 2026-04-26 03:32 | 62.20219 | 44.33733 | 32652 ft | 468 kts | 148° |
| 2026-04-26 03:32 | 62.14863 | 44.41678 | 32644 ft | 468 kts | 148° |
| 2026-04-26 03:33 | 62.09496 | 44.49601 | 32661 ft | 470 kts | 148° |
| 2026-04-26 03:33 | 62.04085 | 44.57557 | 33023 ft | 471 kts | 148° |
| 2026-04-26 03:34 | 62.01429 | 44.61454 | 33339 ft | 469 kts | 148° |
| 2026-04-26 03:34 | 61.98744 | 44.65385 | 33552 ft | 468 kts | 148° |
| 2026-04-26 03:34 | 61.96025 | 44.69358 | 33717 ft | 470 kts | 148° |
| 2026-04-26 03:34 | 61.93356 | 44.73247 | 33873 ft | 470 kts | 148° |
| 2026-04-26 03:35 | 61.90654 | 44.77177 | 34051 ft | 469 kts | 148° |
| 2026-04-26 03:35 | 61.87951 | 44.81100 | 34244 ft | 469 kts | 148° |
| 2026-04-26 03:35 | 61.85267 | 44.84986 | 34407 ft | 469 kts | 148° |
| 2026-04-26 03:35 | 61.82575 | 44.88876 | 34553 ft | 469 kts | 148° |
| 2026-04-26 03:36 | 61.79874 | 44.92770 | 34657 ft | 470 kts | 148° |
| 2026-04-26 03:36 | 61.77168 | 44.96665 | 34658 ft | 472 kts | 148° |
| 2026-04-26 03:36 | 61.71747 | 45.04444 | 34662 ft | 469 kts | 148° |
| 2026-04-26 03:37 | 61.66577 | 45.12685 | 34679 ft | 467 kts | 143° |
| 2026-04-26 03:37 | 61.61615 | 45.21485 | 34670 ft | 466 kts | 142° |
| 2026-04-26 03:38 | 61.56670 | 45.30245 | 34685 ft | 465 kts | 142° |
| 2026-04-26 03:38 | 61.51698 | 45.38923 | 34686 ft | 465 kts | 143° |
| 2026-04-26 03:39 | 61.46700 | 45.47560 | 34686 ft | 466 kts | 143° |
| 2026-04-26 03:39 | 61.42518 | 45.54756 | 34687 ft | 468 kts | 143° |
| 2026-04-26 03:40 | 61.36660 | 45.64795 | 34686 ft | 470 kts | 143° |
| 2026-04-26 03:40 | 61.31585 | 45.73457 | 34693 ft | 472 kts | 143° |
| 2026-04-26 03:41 | 61.26486 | 45.82122 | 34697 ft | 474 kts | 143° |
| 2026-04-26 03:41 | 61.21363 | 45.90790 | 34693 ft | 475 kts | 143° |
| 2026-04-26 03:42 | 61.16225 | 45.99446 | 34699 ft | 475 kts | 143° |
| 2026-04-26 03:42 | 61.11084 | 46.08071 | 34698 ft | 475 kts | 144° |
| 2026-04-26 03:43 | 61.05938 | 46.16671 | 34701 ft | 475 kts | 144° |
| 2026-04-26 03:43 | 61.00832 | 46.25158 | 34701 ft | 474 kts | 144° |
| 2026-04-26 03:44 | 60.95707 | 46.33636 | 34700 ft | 473 kts | 144° |
| 2026-04-26 03:44 | 60.90565 | 46.42112 | 34705 ft | 472 kts | 144° |
| 2026-04-26 03:45 | 60.85443 | 46.50522 | 34703 ft | 471 kts | 144° |
| 2026-04-26 03:45 | 60.80323 | 46.58898 | 34716 ft | 470 kts | 144° |
| 2026-04-26 03:46 | 60.75237 | 46.67183 | 34715 ft | 470 kts | 144° |
| 2026-04-26 03:47 | 60.67550 | 46.79682 | 34721 ft | 470 kts | 144° |
| 2026-04-26 03:47 | 60.62422 | 46.87986 | 34721 ft | 471 kts | 144° |
| 2026-04-26 03:48 | 60.57283 | 46.96270 | 34726 ft | 472 kts | 144° |
| 2026-04-26 03:48 | 60.52121 | 47.04555 | 34724 ft | 472 kts | 144° |
| 2026-04-26 03:49 | 60.46948 | 47.12824 | 34727 ft | 473 kts | 144° |
| 2026-04-26 03:49 | 60.41797 | 47.21025 | 34736 ft | 474 kts | 145° |
| 2026-04-26 03:50 | 60.36604 | 47.29258 | 34717 ft | 475 kts | 145° |
| 2026-04-26 03:50 | 60.31397 | 47.37479 | 34736 ft | 475 kts | 145° |
| 2026-04-26 03:51 | 60.26174 | 47.45696 | 34731 ft | 476 kts | 145° |
| 2026-04-26 03:51 | 60.20943 | 47.53866 | 34738 ft | 475 kts | 147° |
| 2026-04-26 03:52 | 60.15449 | 47.61188 | 34742 ft | 473 kts | 151° |
| 2026-04-26 03:52 | 60.09863 | 47.68211 | 34736 ft | 473 kts | 151° |
| 2026-04-26 03:53 | 60.04299 | 47.75291 | 34743 ft | 473 kts | 150° |
| 2026-04-26 03:53 | 59.98766 | 47.82373 | 34743 ft | 473 kts | 150° |
| 2026-04-26 03:54 | 59.93247 | 47.89394 | 34750 ft | 473 kts | 150° |
| 2026-04-26 03:54 | 59.87694 | 47.96412 | 34749 ft | 473 kts | 151° |
| 2026-04-26 03:55 | 59.82129 | 48.03419 | 34753 ft | 472 kts | 151° |
| 2026-04-26 03:55 | 59.76583 | 48.10380 | 34748 ft | 473 kts | 151° |
| 2026-04-26 03:56 | 59.71014 | 48.17344 | 34756 ft | 473 kts | 151° |
| 2026-04-26 03:56 | 59.66387 | 48.23108 | 34758 ft | 473 kts | 151° |
| 2026-04-26 03:57 | 59.59901 | 48.31159 | 34758 ft | 473 kts | 151° |
| 2026-04-26 03:57 | 59.55235 | 48.36948 | 34759 ft | 474 kts | 151° |
| 2026-04-26 03:58 | 59.49651 | 48.43894 | 34760 ft | 474 kts | 151° |
| 2026-04-26 03:58 | 59.44111 | 48.50763 | 34764 ft | 474 kts | 151° |
| 2026-04-26 03:59 | 59.38512 | 48.57675 | 34769 ft | 475 kts | 151° |
| 2026-04-26 03:59 | 59.32913 | 48.64555 | 34769 ft | 475 kts | 151° |
| 2026-04-26 04:00 | 59.27312 | 48.71414 | 34768 ft | 475 kts | 151° |
| 2026-04-26 04:00 | 59.21694 | 48.78267 | 34766 ft | 475 kts | 151° |
| 2026-04-26 04:01 | 59.15896 | 48.84388 | 34779 ft | 472 kts | 158° |
| 2026-04-26 04:01 | 59.09958 | 48.89885 | 34769 ft | 472 kts | 158° |
| 2026-04-26 04:02 | 59.04072 | 48.95379 | 34763 ft | 473 kts | 158° |
| 2026-04-26 04:02 | 58.98132 | 49.01009 | 34776 ft | 473 kts | 157° |
| 2026-04-26 04:03 | 58.92249 | 49.06579 | 34784 ft | 473 kts | 157° |
| 2026-04-26 04:03 | 58.86330 | 49.12144 | 34779 ft | 473 kts | 158° |
| 2026-04-26 04:04 | 58.80386 | 49.17666 | 34781 ft | 473 kts | 158° |
| 2026-04-26 04:04 | 58.74456 | 49.23158 | 34781 ft | 474 kts | 158° |
| 2026-04-26 04:05 | 58.68495 | 49.28595 | 34787 ft | 473 kts | 158° |
| 2026-04-26 04:05 | 58.62521 | 49.33932 | 34785 ft | 473 kts | 158° |
| 2026-04-26 04:06 | 58.56551 | 49.39270 | 34788 ft | 473 kts | 158° |
| 2026-04-26 04:06 | 58.50581 | 49.44601 | 34782 ft | 473 kts | 158° |
| 2026-04-26 04:07 | 58.44623 | 49.49907 | 34795 ft | 473 kts | 158° |
| 2026-04-26 04:07 | 58.38692 | 49.55170 | 34790 ft | 473 kts | 158° |
| 2026-04-26 04:08 | 58.32720 | 49.60447 | 34800 ft | 472 kts | 158° |
| 2026-04-26 04:08 | 58.26763 | 49.65693 | 34794 ft | 472 kts | 158° |
| 2026-04-26 04:09 | 58.20802 | 49.70922 | 34801 ft | 472 kts | 158° |
| 2026-04-26 04:09 | 58.14827 | 49.76147 | 34796 ft | 472 kts | 158° |
| 2026-04-26 04:10 | 58.08869 | 49.81336 | 34808 ft | 472 kts | 158° |
| 2026-04-26 04:10 | 58.02892 | 49.86529 | 34801 ft | 472 kts | 158° |
| 2026-04-26 04:11 | 57.96970 | 49.91658 | 34809 ft | 472 kts | 158° |
| 2026-04-26 04:11 | 57.90999 | 49.96813 | 34803 ft | 472 kts | 159° |
| 2026-04-26 04:12 | 57.85086 | 50.02200 | 34800 ft | 475 kts | 152° |
| 2026-04-26 04:12 | 57.79830 | 50.09769 | 34808 ft | 478 kts | 142° |
| 2026-04-26 04:13 | 57.74735 | 50.17802 | 34809 ft | 478 kts | 142° |
| 2026-04-26 04:13 | 57.69649 | 50.25717 | 34801 ft | 478 kts | 143° |
| 2026-04-26 04:14 | 57.64482 | 50.33637 | 34810 ft | 478 kts | 143° |
| 2026-04-26 04:14 | 57.59353 | 50.41439 | 34808 ft | 478 kts | 143° |
| 2026-04-26 04:15 | 57.54182 | 50.49275 | 34814 ft | 478 kts | 143° |
| 2026-04-26 04:15 | 57.49014 | 50.57083 | 34807 ft | 478 kts | 143° |
| 2026-04-26 04:16 | 57.43848 | 50.64860 | 34816 ft | 478 kts | 143° |
| 2026-04-26 04:16 | 57.38671 | 50.72625 | 34808 ft | 478 kts | 143° |
| 2026-04-26 04:17 | 57.33525 | 50.80314 | 34813 ft | 478 kts | 143° |
| 2026-04-26 04:17 | 57.28352 | 50.88015 | 34808 ft | 477 kts | 144° |
| 2026-04-26 04:18 | 57.23166 | 50.95707 | 34815 ft | 477 kts | 144° |
| 2026-04-26 04:18 | 57.17983 | 51.03366 | 34807 ft | 477 kts | 144° |
| 2026-04-26 04:19 | 57.12810 | 51.10987 | 34814 ft | 476 kts | 144° |
| 2026-04-26 04:19 | 57.07629 | 51.18588 | 34806 ft | 476 kts | 144° |
| 2026-04-26 04:20 | 57.02453 | 51.26151 | 34817 ft | 475 kts | 144° |
| 2026-04-26 04:20 | 56.97304 | 51.33652 | 34809 ft | 475 kts | 144° |
| 2026-04-26 04:21 | 56.92124 | 51.41175 | 34819 ft | 474 kts | 144° |
| 2026-04-26 04:21 | 56.86944 | 51.48673 | 34808 ft | 474 kts | 144° |
| 2026-04-26 04:22 | 56.81771 | 51.56130 | 34818 ft | 474 kts | 144° |
| 2026-04-26 04:22 | 56.76589 | 51.63571 | 34810 ft | 474 kts | 144° |
| 2026-04-26 04:23 | 56.71405 | 51.70994 | 34817 ft | 473 kts | 144° |
| 2026-04-26 04:23 | 56.66257 | 51.78341 | 34814 ft | 473 kts | 144° |
| 2026-04-26 04:24 | 56.61074 | 51.85711 | 34809 ft | 473 kts | 144° |
| 2026-04-26 04:24 | 56.55888 | 51.93060 | 34812 ft | 472 kts | 144° |
| 2026-04-26 04:25 | 56.50701 | 52.00386 | 34815 ft | 472 kts | 145° |
| 2026-04-26 04:25 | 56.45516 | 52.07683 | 34809 ft | 472 kts | 145° |
| 2026-04-26 04:26 | 56.40332 | 52.14952 | 34819 ft | 472 kts | 145° |
| 2026-04-26 04:26 | 56.35167 | 52.22138 | 34812 ft | 471 kts | 145° |
| 2026-04-26 04:27 | 56.29970 | 52.29342 | 34816 ft | 471 kts | 145° |
| 2026-04-26 04:27 | 56.24779 | 52.36515 | 34814 ft | 471 kts | 145° |
| 2026-04-26 04:28 | 56.19578 | 52.43680 | 34817 ft | 471 kts | 145° |
| 2026-04-26 04:28 | 56.14380 | 52.50820 | 34814 ft | 470 kts | 145° |
| 2026-04-26 04:29 | 56.09203 | 52.57908 | 34658 ft | 472 kts | 146° |
| 2026-04-26 04:29 | 56.04375 | 52.66006 | 34804 ft | 482 kts | 131° |
| 2026-04-26 04:30 | 56.00179 | 52.75606 | 34827 ft | 491 kts | 130° |
| 2026-04-26 04:30 | 55.96001 | 52.85247 | 34830 ft | 496 kts | 130° |
| 2026-04-26 04:31 | 55.91747 | 52.94874 | 34811 ft | 490 kts | 130° |
| 2026-04-26 04:31 | 55.87522 | 53.04319 | 34817 ft | 485 kts | 131° |
| 2026-04-26 04:32 | 55.83307 | 53.13693 | 34826 ft | 485 kts | 131° |
| 2026-04-26 04:32 | 55.79089 | 53.23049 | 34831 ft | 485 kts | 131° |
| 2026-04-26 04:33 | 55.74878 | 53.32360 | 34827 ft | 486 kts | 131° |
| 2026-04-26 04:33 | 55.70639 | 53.41701 | 34831 ft | 486 kts | 131° |
| 2026-04-26 04:34 | 55.66388 | 53.51027 | 34835 ft | 487 kts | 131° |
| 2026-04-26 04:34 | 55.62107 | 53.60385 | 35086 ft | 488 kts | 131° |
| 2026-04-26 04:34 | 55.59969 | 53.65050 | 35338 ft | 486 kts | 131° |
| 2026-04-26 04:35 | 55.57847 | 53.69674 | 35543 ft | 485 kts | 131° |
| 2026-04-26 04:35 | 55.55712 | 53.74317 | 35687 ft | 486 kts | 131° |
| 2026-04-26 04:35 | 55.53572 | 53.78959 | 35828 ft | 486 kts | 131° |
| 2026-04-26 04:35 | 55.51433 | 53.83592 | 36004 ft | 486 kts | 131° |
| 2026-04-26 04:36 | 55.49304 | 53.88194 | 36174 ft | 485 kts | 131° |
| 2026-04-26 04:36 | 55.47166 | 53.92808 | 36348 ft | 485 kts | 131° |
| 2026-04-26 04:36 | 55.45032 | 53.97407 | 36491 ft | 485 kts | 131° |
| 2026-04-26 04:36 | 55.42893 | 54.02006 | 36644 ft | 485 kts | 131° |
| 2026-04-26 04:37 | 55.40764 | 54.06575 | 36785 ft | 484 kts | 132° |
| 2026-04-26 04:37 | 55.36476 | 54.15702 | 36830 ft | 487 kts | 132° |
| 2026-04-26 04:38 | 55.32158 | 54.24839 | 36837 ft | 485 kts | 132° |
| 2026-04-26 04:38 | 55.27851 | 54.33932 | 36838 ft | 483 kts | 132° |
| 2026-04-26 04:39 | 55.23556 | 54.42972 | 36840 ft | 481 kts | 132° |
| 2026-04-26 04:39 | 55.19264 | 54.51972 | 36838 ft | 480 kts | 132° |
| 2026-04-26 04:40 | 55.15000 | 54.60880 | 36843 ft | 480 kts | 133° |
| 2026-04-26 04:40 | 55.10688 | 54.69862 | 36844 ft | 480 kts | 133° |
| 2026-04-26 04:41 | 55.06415 | 54.78738 | 36847 ft | 480 kts | 133° |
| 2026-04-26 04:41 | 55.02101 | 54.87667 | 36843 ft | 481 kts | 133° |
| 2026-04-26 04:42 | 54.97782 | 54.96577 | 36851 ft | 482 kts | 133° |
| 2026-04-26 04:42 | 54.93037 | 55.04746 | 36855 ft | 477 kts | 148° |
| 2026-04-26 04:43 | 54.87240 | 55.10045 | 36847 ft | 468 kts | 165° |
| 2026-04-26 04:43 | 54.81040 | 55.13580 | 36844 ft | 469 kts | 166° |
| 2026-04-26 04:44 | 54.74833 | 55.17150 | 36857 ft | 470 kts | 165° |
| 2026-04-26 04:44 | 54.68673 | 55.20785 | 36858 ft | 471 kts | 165° |
| 2026-04-26 04:45 | 54.62446 | 55.24333 | 36857 ft | 470 kts | 167° |
| 2026-04-26 04:45 | 54.56174 | 55.27407 | 36865 ft | 469 kts | 168° |
| 2026-04-26 04:46 | 54.49887 | 55.30555 | 36867 ft | 469 kts | 167° |
| 2026-04-26 04:46 | 54.43629 | 55.33737 | 36876 ft | 469 kts | 167° |
| 2026-04-26 04:47 | 54.37376 | 55.36907 | 36878 ft | 468 kts | 167° |
| 2026-04-26 04:47 | 54.31166 | 55.40041 | 36882 ft | 467 kts | 167° |
| 2026-04-26 04:48 | 54.21831 | 55.44732 | 36887 ft | 466 kts | 167° |
| 2026-04-26 04:48 | 54.16622 | 55.47332 | 36889 ft | 465 kts | 168° |
| 2026-04-26 04:49 | 54.10414 | 55.50404 | 36896 ft | 464 kts | 168° |
| 2026-04-26 04:49 | 54.04195 | 55.53473 | 36897 ft | 464 kts | 168° |
| 2026-04-26 04:50 | 53.98040 | 55.56504 | 36898 ft | 464 kts | 168° |
| 2026-04-26 04:50 | 53.91821 | 55.59558 | 36901 ft | 464 kts | 168° |
| 2026-04-26 04:51 | 53.85615 | 55.62597 | 36906 ft | 464 kts | 168° |
| 2026-04-26 04:51 | 53.79415 | 55.65622 | 36903 ft | 464 kts | 168° |
| 2026-04-26 04:52 | 53.73209 | 55.68641 | 36910 ft | 464 kts | 168° |
| 2026-04-26 04:52 | 53.67042 | 55.71633 | 36910 ft | 464 kts | 168° |
| 2026-04-26 04:53 | 53.60801 | 55.74657 | 36912 ft | 464 kts | 168° |
| 2026-04-26 04:53 | 53.54626 | 55.77646 | 36916 ft | 465 kts | 168° |
| 2026-04-26 04:54 | 53.48410 | 55.80646 | 36912 ft | 465 kts | 168° |
| 2026-04-26 04:54 | 53.42171 | 55.83676 | 36914 ft | 466 kts | 165° |
| 2026-04-26 04:55 | 53.36384 | 55.88700 | 36921 ft | 475 kts | 147° |
| 2026-04-26 04:55 | 53.31489 | 55.96240 | 36926 ft | 479 kts | 138° |
| 2026-04-26 04:56 | 53.26823 | 56.04188 | 36932 ft | 479 kts | 138° |
| 2026-04-26 04:56 | 53.22145 | 56.12042 | 36929 ft | 479 kts | 139° |
| 2026-04-26 04:57 | 53.17406 | 56.19867 | 36924 ft | 479 kts | 139° |
| 2026-04-26 04:57 | 53.12654 | 56.27660 | 36926 ft | 479 kts | 139° |
| 2026-04-26 04:58 | 53.07899 | 56.35434 | 36936 ft | 479 kts | 139° |
| 2026-04-26 04:58 | 53.03134 | 56.43206 | 36933 ft | 479 kts | 139° |
| 2026-04-26 04:59 | 52.98365 | 56.50960 | 36933 ft | 480 kts | 139° |
| 2026-04-26 04:59 | 52.93589 | 56.58705 | 36937 ft | 480 kts | 139° |
| 2026-04-26 05:00 | 52.88812 | 56.66420 | 36934 ft | 480 kts | 139° |
| 2026-04-26 05:00 | 52.84019 | 56.74134 | 36939 ft | 480 kts | 140° |
| 2026-04-26 05:01 | 52.79263 | 56.81767 | 36939 ft | 480 kts | 140° |
| 2026-04-26 05:01 | 52.74473 | 56.89435 | 36936 ft | 480 kts | 140° |
| 2026-04-26 05:02 | 52.69671 | 56.97097 | 36938 ft | 479 kts | 140° |
| 2026-04-26 05:02 | 52.64876 | 57.04723 | 36941 ft | 479 kts | 140° |
| 2026-04-26 05:03 | 52.60070 | 57.12343 | 36938 ft | 479 kts | 140° |
| 2026-04-26 05:03 | 52.55254 | 57.19953 | 36947 ft | 479 kts | 140° |
| 2026-04-26 05:04 | 52.50443 | 57.27531 | 36949 ft | 479 kts | 140° |
| 2026-04-26 05:04 | 52.45624 | 57.35098 | 36951 ft | 479 kts | 140° |
| 2026-04-26 05:05 | 52.40801 | 57.42647 | 36949 ft | 479 kts | 140° |
| 2026-04-26 05:05 | 52.35973 | 57.50180 | 36950 ft | 480 kts | 140° |
| 2026-04-26 05:06 | 52.31139 | 57.57698 | 36950 ft | 480 kts | 140° |
| 2026-04-26 05:06 | 52.26320 | 57.65168 | 36954 ft | 480 kts | 140° |
| 2026-04-26 05:07 | 52.21475 | 57.72658 | 36958 ft | 480 kts | 141° |
| 2026-04-26 05:07 | 52.16614 | 57.80147 | 36968 ft | 480 kts | 141° |
| 2026-04-26 05:08 | 52.11756 | 57.87609 | 36966 ft | 480 kts | 141° |
| 2026-04-26 05:08 | 52.06895 | 57.95056 | 36967 ft | 480 kts | 141° |
| 2026-04-26 05:09 | 52.01932 | 58.02257 | 36959 ft | 475 kts | 149° |
| 2026-04-26 05:09 | 51.96191 | 58.07224 | 36977 ft | 464 kts | 163° |
| 2026-04-26 05:10 | 51.90189 | 58.10893 | 36973 ft | 464 kts | 164° |
| 2026-04-26 05:10 | 51.84155 | 58.14597 | 36978 ft | 464 kts | 163° |
| 2026-04-26 05:11 | 51.78138 | 58.18356 | 36981 ft | 464 kts | 163° |
| 2026-04-26 05:11 | 51.72119 | 58.22131 | 36991 ft | 464 kts | 163° |
| 2026-04-26 05:12 | 51.66098 | 58.25895 | 36989 ft | 464 kts | 163° |
| 2026-04-26 05:12 | 51.60079 | 58.29645 | 36994 ft | 464 kts | 163° |
| 2026-04-26 05:13 | 51.54056 | 58.33387 | 37005 ft | 464 kts | 163° |
| 2026-04-26 05:13 | 51.48137 | 58.37401 | 36997 ft | 466 kts | 160° |
| 2026-04-26 05:14 | 51.42274 | 58.41869 | 37013 ft | 467 kts | 159° |
| 2026-04-26 05:14 | 51.36423 | 58.46347 | 37011 ft | 466 kts | 159° |
| 2026-04-26 05:15 | 51.30541 | 58.50778 | 37026 ft | 466 kts | 159° |
| 2026-04-26 05:15 | 51.24670 | 58.55157 | 37012 ft | 466 kts | 160° |
| 2026-04-26 05:16 | 51.18787 | 58.59528 | 37022 ft | 466 kts | 160° |
| 2026-04-26 05:16 | 51.12938 | 58.63862 | 37019 ft | 466 kts | 160° |
| 2026-04-26 05:17 | 51.07020 | 58.68238 | 37017 ft | 465 kts | 160° |
| 2026-04-26 05:17 | 51.01183 | 58.72542 | 37022 ft | 465 kts | 160° |
| 2026-04-26 05:18 | 50.95314 | 58.76857 | 37026 ft | 465 kts | 160° |
| 2026-04-26 05:18 | 50.89438 | 58.81166 | 37030 ft | 465 kts | 160° |
| 2026-04-26 05:19 | 50.83561 | 58.85463 | 37039 ft | 465 kts | 160° |
| 2026-04-26 05:19 | 50.77690 | 58.89745 | 37050 ft | 465 kts | 160° |
| 2026-04-26 05:20 | 50.71819 | 58.94016 | 37050 ft | 465 kts | 160° |
| 2026-04-26 05:20 | 50.65948 | 58.98270 | 37059 ft | 464 kts | 160° |
| 2026-04-26 05:21 | 50.60071 | 59.02514 | 37056 ft | 464 kts | 160° |
| 2026-04-26 05:21 | 50.54231 | 59.06721 | 37067 ft | 464 kts | 160° |
| 2026-04-26 05:22 | 50.48354 | 59.10945 | 37072 ft | 464 kts | 160° |
| 2026-04-26 05:22 | 50.42473 | 59.15161 | 37069 ft | 465 kts | 160° |
| 2026-04-26 05:23 | 50.36574 | 59.19379 | 37075 ft | 465 kts | 160° |
| 2026-04-26 05:23 | 50.30682 | 59.23580 | 37076 ft | 465 kts | 160° |
| 2026-04-26 05:24 | 50.24783 | 59.27774 | 37079 ft | 465 kts | 161° |
| 2026-04-26 05:24 | 50.18881 | 59.31958 | 37083 ft | 466 kts | 160° |
| 2026-04-26 05:25 | 50.12979 | 59.36132 | 37081 ft | 466 kts | 161° |
| 2026-04-26 05:25 | 50.07062 | 59.40305 | 37085 ft | 466 kts | 161° |
| 2026-04-26 05:26 | 50.01202 | 59.44426 | 37089 ft | 466 kts | 161° |
| 2026-04-26 05:26 | 49.95290 | 59.48573 | 37094 ft | 466 kts | 161° |
| 2026-04-26 05:27 | 49.89381 | 59.52707 | 37099 ft | 466 kts | 161° |
| 2026-04-26 05:27 | 49.83465 | 59.56834 | 37100 ft | 466 kts | 161° |
| 2026-04-26 05:28 | 49.77556 | 59.60946 | 37106 ft | 465 kts | 161° |
| 2026-04-26 05:28 | 49.71641 | 59.65050 | 37112 ft | 465 kts | 161° |
| 2026-04-26 05:29 | 49.65745 | 59.69132 | 37111 ft | 465 kts | 161° |
| 2026-04-26 05:29 | 49.59878 | 59.73182 | 37104 ft | 464 kts | 161° |
| 2026-04-26 05:30 | 49.53985 | 59.77240 | 37100 ft | 464 kts | 161° |
| 2026-04-26 05:30 | 49.48079 | 59.81292 | 37111 ft | 463 kts | 161° |
| 2026-04-26 05:31 | 49.42201 | 59.85314 | 37113 ft | 463 kts | 161° |
| 2026-04-26 05:31 | 49.36305 | 59.89340 | 37116 ft | 463 kts | 161° |
| 2026-04-26 05:32 | 49.30428 | 59.93343 | 37123 ft | 462 kts | 161° |
| 2026-04-26 05:32 | 49.24539 | 59.97344 | 37120 ft | 462 kts | 161° |
| 2026-04-26 05:33 | 49.18649 | 60.01334 | 37123 ft | 462 kts | 161° |
| 2026-04-26 05:33 | 49.12810 | 60.05280 | 37134 ft | 462 kts | 161° |
| 2026-04-26 05:34 | 49.06893 | 60.09269 | 37132 ft | 462 kts | 161° |
| 2026-04-26 05:34 | 49.01044 | 60.13201 | 37128 ft | 462 kts | 161° |
| 2026-04-26 05:35 | 48.95153 | 60.17151 | 37127 ft | 463 kts | 162° |
| 2026-04-26 05:35 | 48.89257 | 60.21094 | 37136 ft | 463 kts | 162° |
| 2026-04-26 05:36 | 48.83360 | 60.25028 | 37134 ft | 463 kts | 162° |
| 2026-04-26 05:36 | 48.78451 | 60.28296 | 37136 ft | 463 kts | 162° |
| 2026-04-26 05:37 | 48.72536 | 60.32223 | 37144 ft | 463 kts | 162° |
| 2026-04-26 05:37 | 48.65658 | 60.36777 | 37140 ft | 464 kts | 162° |
| 2026-04-26 05:38 | 48.60708 | 60.40047 | 37144 ft | 464 kts | 162° |
| 2026-04-26 05:38 | 48.54788 | 60.43948 | 37142 ft | 464 kts | 162° |
| 2026-04-26 05:39 | 48.48861 | 60.47842 | 37147 ft | 464 kts | 162° |
| 2026-04-26 05:39 | 48.42941 | 60.51723 | 37142 ft | 464 kts | 162° |
| 2026-04-26 05:40 | 48.37048 | 60.55577 | 37142 ft | 464 kts | 162° |
| 2026-04-26 05:40 | 48.31119 | 60.59444 | 37146 ft | 464 kts | 162° |
| 2026-04-26 05:41 | 48.25179 | 60.63309 | 37145 ft | 464 kts | 162° |
| 2026-04-26 05:41 | 48.19248 | 60.67160 | 37146 ft | 464 kts | 162° |
| 2026-04-26 05:42 | 48.13316 | 60.70999 | 37150 ft | 464 kts | 162° |
| 2026-04-26 05:42 | 48.07398 | 60.74815 | 37146 ft | 464 kts | 162° |
| 2026-04-26 05:43 | 48.01456 | 60.78638 | 37149 ft | 464 kts | 162° |
| 2026-04-26 05:43 | 47.95532 | 60.82441 | 37152 ft | 464 kts | 162° |
| 2026-04-26 05:44 | 47.89602 | 60.86239 | 37152 ft | 463 kts | 162° |
| 2026-04-26 05:44 | 47.83677 | 60.90025 | 37155 ft | 463 kts | 162° |
| 2026-04-26 05:45 | 47.77781 | 60.93783 | 37149 ft | 463 kts | 162° |
| 2026-04-26 05:45 | 47.71850 | 60.97553 | 37154 ft | 463 kts | 162° |
| 2026-04-26 05:46 | 47.65915 | 61.01317 | 37151 ft | 463 kts | 163° |
| 2026-04-26 05:46 | 47.59982 | 61.05070 | 37153 ft | 463 kts | 163° |
| 2026-04-26 05:47 | 47.54062 | 61.08806 | 37161 ft | 463 kts | 163° |
| 2026-04-26 05:47 | 47.48130 | 61.12540 | 37158 ft | 462 kts | 163° |
| 2026-04-26 05:48 | 47.42206 | 61.16260 | 37156 ft | 462 kts | 163° |
| 2026-04-26 05:48 | 47.36285 | 61.19969 | 37162 ft | 462 kts | 163° |
| 2026-04-26 05:49 | 47.27451 | 61.25486 | 37168 ft | 461 kts | 163° |
| 2026-04-26 05:50 | 47.21505 | 61.29188 | 37165 ft | 461 kts | 163° |
| 2026-04-26 05:50 | 47.15630 | 61.32837 | 37165 ft | 461 kts | 163° |
| 2026-04-26 05:51 | 47.09690 | 61.36517 | 37163 ft | 460 kts | 163° |
| 2026-04-26 05:51 | 47.03957 | 61.40062 | 37161 ft | 460 kts | 163° |
| 2026-04-26 05:52 | 46.98043 | 61.43709 | 37169 ft | 460 kts | 163° |
| 2026-04-26 05:52 | 46.92150 | 61.47336 | 37168 ft | 460 kts | 163° |
| 2026-04-26 05:53 | 46.86284 | 61.50931 | 37164 ft | 459 kts | 165° |
| 2026-04-26 05:53 | 46.80205 | 61.52948 | 37171 ft | 442 kts | 182° |
| 2026-04-26 05:54 | 46.74157 | 61.52506 | 37179 ft | 433 kts | 192° |
| 2026-04-26 05:54 | 46.68167 | 61.51569 | 37177 ft | 433 kts | 192° |
| 2026-04-26 05:55 | 46.62151 | 61.50663 | 37178 ft | 434 kts | 192° |
| 2026-04-26 05:55 | 46.56138 | 61.49797 | 37175 ft | 434 kts | 192° |
| 2026-04-26 05:56 | 46.50160 | 61.48951 | 37180 ft | 434 kts | 191° |
| 2026-04-26 05:56 | 46.44143 | 61.48103 | 37180 ft | 434 kts | 191° |
| 2026-04-26 05:57 | 46.38120 | 61.47255 | 37185 ft | 435 kts | 191° |
| 2026-04-26 05:57 | 46.32103 | 61.46409 | 37185 ft | 435 kts | 191° |
| 2026-04-26 05:58 | 46.26064 | 61.45561 | 37186 ft | 435 kts | 191° |
| 2026-04-26 05:58 | 46.20032 | 61.44717 | 37188 ft | 435 kts | 191° |
| 2026-04-26 05:59 | 46.14006 | 61.43875 | 37192 ft | 435 kts | 191° |
| 2026-04-26 05:59 | 46.08019 | 61.43040 | 37190 ft | 435 kts | 191° |
| 2026-04-26 06:00 | 46.01998 | 61.42203 | 37192 ft | 434 kts | 191° |
| 2026-04-26 06:00 | 45.95973 | 61.41371 | 37190 ft | 434 kts | 190° |
| 2026-04-26 06:01 | 45.89887 | 61.41301 | 37192 ft | 438 kts | 185° |
| 2026-04-26 06:01 | 45.83796 | 61.41459 | 37193 ft | 438 kts | 185° |
| 2026-04-26 06:02 | 45.77707 | 61.41600 | 37184 ft | 437 kts | 185° |
| 2026-04-26 06:02 | 45.71630 | 61.41715 | 37196 ft | 436 kts | 185° |
| 2026-04-26 06:03 | 45.65569 | 61.41819 | 37204 ft | 436 kts | 186° |
| 2026-04-26 06:03 | 45.59507 | 61.41921 | 37202 ft | 435 kts | 186° |
| 2026-04-26 06:04 | 45.53489 | 61.42023 | 37202 ft | 435 kts | 186° |
| 2026-04-26 06:04 | 45.47434 | 61.42126 | 37205 ft | 435 kts | 186° |
| 2026-04-26 06:05 | 45.41392 | 61.42229 | 37205 ft | 434 kts | 186° |
| 2026-04-26 06:05 | 45.35350 | 61.42331 | 37205 ft | 434 kts | 186° |
| 2026-04-26 06:06 | 45.29301 | 61.42433 | 37203 ft | 434 kts | 186° |
| 2026-04-26 06:06 | 45.23261 | 61.42535 | 37213 ft | 434 kts | 186° |
| 2026-04-26 06:07 | 45.17217 | 61.42637 | 37209 ft | 434 kts | 186° |
| 2026-04-26 06:07 | 45.11171 | 61.42739 | 37213 ft | 434 kts | 186° |
| 2026-04-26 06:08 | 45.05130 | 61.42840 | 37214 ft | 434 kts | 186° |
| 2026-04-26 06:08 | 44.99091 | 61.42941 | 37215 ft | 434 kts | 186° |
| 2026-04-26 06:09 | 44.93137 | 61.43004 | 36886 ft | 421 kts | 190° |
| 2026-04-26 06:09 | 44.90268 | 61.42468 | 36384 ft | 410 kts | 199° |
| 2026-04-26 06:09 | 44.87574 | 61.41414 | 36280 ft | 397 kts | 205° |
| 2026-04-26 06:10 | 44.82598 | 61.38080 | 36235 ft | 400 kts | 212° |
| 2026-04-26 06:10 | 44.77620 | 61.34400 | 36232 ft | 407 kts | 212° |
| 2026-04-26 06:11 | 44.72544 | 61.30682 | 36232 ft | 415 kts | 212° |
| 2026-04-26 06:11 | 44.67397 | 61.26946 | 36219 ft | 418 kts | 212° |
| 2026-04-26 06:12 | 44.62215 | 61.23198 | 36220 ft | 419 kts | 212° |
| 2026-04-26 06:12 | 44.57020 | 61.19448 | 36221 ft | 419 kts | 212° |
| 2026-04-26 06:13 | 44.51838 | 61.15713 | 36224 ft | 418 kts | 212° |
| 2026-04-26 06:13 | 44.46663 | 61.11989 | 36228 ft | 417 kts | 212° |
| 2026-04-26 06:14 | 44.41515 | 61.08292 | 36230 ft | 415 kts | 212° |
| 2026-04-26 06:14 | 44.36246 | 61.04988 | 36237 ft | 418 kts | 205° |
| 2026-04-26 06:15 | 44.30780 | 61.02437 | 36224 ft | 417 kts | 204° |
| 2026-04-26 06:15 | 44.25287 | 60.99892 | 36229 ft | 415 kts | 205° |
| 2026-04-26 06:16 | 44.19810 | 60.97333 | 36234 ft | 414 kts | 205° |
| 2026-04-26 06:16 | 44.14367 | 60.94779 | 36236 ft | 413 kts | 205° |
| 2026-04-26 06:17 | 44.08925 | 60.92226 | 36237 ft | 413 kts | 205° |
| 2026-04-26 06:17 | 44.03480 | 60.89674 | 36235 ft | 413 kts | 205° |
| 2026-04-26 06:18 | 43.98030 | 60.87126 | 36237 ft | 414 kts | 205° |
| 2026-04-26 06:18 | 43.92552 | 60.84570 | 36240 ft | 415 kts | 205° |
| 2026-04-26 06:19 | 43.87071 | 60.82019 | 36240 ft | 416 kts | 205° |
| 2026-04-26 06:19 | 43.81570 | 60.79463 | 36243 ft | 417 kts | 205° |
| 2026-04-26 06:20 | 43.76101 | 60.76927 | 36239 ft | 417 kts | 205° |
| 2026-04-26 06:20 | 43.70585 | 60.74374 | 36243 ft | 418 kts | 205° |
| 2026-04-26 06:21 | 43.65067 | 60.71825 | 36245 ft | 418 kts | 205° |
| 2026-04-26 06:21 | 43.59538 | 60.69276 | 36247 ft | 419 kts | 205° |
| 2026-04-26 06:22 | 43.54010 | 60.66733 | 36245 ft | 419 kts | 205° |
| 2026-04-26 06:22 | 43.48474 | 60.64190 | 36244 ft | 419 kts | 205° |
| 2026-04-26 06:23 | 43.42935 | 60.61651 | 36243 ft | 419 kts | 205° |
| 2026-04-26 06:23 | 43.37439 | 60.59137 | 36243 ft | 419 kts | 205° |
| 2026-04-26 06:24 | 43.31914 | 60.56614 | 36244 ft | 418 kts | 205° |
| 2026-04-26 06:24 | 43.26388 | 60.54096 | 36249 ft | 418 kts | 205° |
| 2026-04-26 06:25 | 43.20866 | 60.51585 | 36253 ft | 418 kts | 205° |
| 2026-04-26 06:25 | 43.16281 | 60.49502 | 36252 ft | 418 kts | 205° |
| 2026-04-26 06:26 | 43.09866 | 60.46594 | 36253 ft | 418 kts | 205° |
| 2026-04-26 06:26 | 43.05237 | 60.44500 | 36257 ft | 418 kts | 205° |
| 2026-04-26 06:27 | 42.99746 | 60.42021 | 36255 ft | 418 kts | 205° |
| 2026-04-26 06:27 | 42.94219 | 60.39530 | 36255 ft | 418 kts | 205° |
| 2026-04-26 06:28 | 42.88684 | 60.37039 | 36252 ft | 419 kts | 205° |
| 2026-04-26 06:28 | 42.83152 | 60.34555 | 36255 ft | 419 kts | 205° |
| 2026-04-26 06:29 | 42.77601 | 60.32067 | 36260 ft | 420 kts | 205° |
| 2026-04-26 06:29 | 42.72046 | 60.29582 | 36258 ft | 420 kts | 205° |
| 2026-04-26 06:30 | 42.66476 | 60.27095 | 36262 ft | 421 kts | 205° |
| 2026-04-26 06:30 | 42.60931 | 60.24624 | 36265 ft | 422 kts | 205° |
| 2026-04-26 06:31 | 42.55355 | 60.22144 | 36260 ft | 422 kts | 205° |
| 2026-04-26 06:31 | 42.49765 | 60.19663 | 36262 ft | 423 kts | 205° |
| 2026-04-26 06:32 | 42.44159 | 60.17178 | 36258 ft | 423 kts | 205° |
| 2026-04-26 06:32 | 42.38556 | 60.14700 | 36258 ft | 424 kts | 205° |
| 2026-04-26 06:33 | 42.32935 | 60.12219 | 36267 ft | 425 kts | 205° |
| 2026-04-26 06:33 | 42.27347 | 60.09756 | 36261 ft | 425 kts | 205° |
| 2026-04-26 06:34 | 42.21718 | 60.07280 | 36263 ft | 426 kts | 205° |
| 2026-04-26 06:34 | 42.16075 | 60.04804 | 36268 ft | 426 kts | 205° |
| 2026-04-26 06:35 | 42.10422 | 60.02327 | 36268 ft | 427 kts | 205° |
| 2026-04-26 06:35 | 42.04772 | 59.99856 | 36271 ft | 427 kts | 205° |
| 2026-04-26 06:36 | 41.99146 | 59.97401 | 36272 ft | 427 kts | 204° |
| 2026-04-26 06:36 | 41.93492 | 59.94937 | 36275 ft | 427 kts | 204° |
| 2026-04-26 06:37 | 41.87842 | 59.92480 | 36281 ft | 427 kts | 204° |
| 2026-04-26 06:37 | 41.82184 | 59.90024 | 36290 ft | 427 kts | 204° |
| 2026-04-26 06:38 | 41.76522 | 59.87571 | 36291 ft | 428 kts | 204° |
| 2026-04-26 06:38 | 41.70856 | 59.85120 | 36297 ft | 428 kts | 204° |
| 2026-04-26 06:39 | 41.65192 | 59.82676 | 36259 ft | 425 kts | 204° |
| 2026-04-26 06:39 | 41.59641 | 59.80291 | 35976 ft | 415 kts | 204° |
| 2026-04-26 06:39 | 41.56925 | 59.79124 | 35348 ft | 415 kts | 204° |
| 2026-04-26 06:40 | 41.54165 | 59.77934 | 34608 ft | 419 kts | 204° |
| 2026-04-26 06:40 | 41.51374 | 59.76729 | 33752 ft | 425 kts | 204° |
| 2026-04-26 06:40 | 41.48541 | 59.75508 | 32852 ft | 430 kts | 204° |
| 2026-04-26 06:40 | 41.45682 | 59.74280 | 32009 ft | 433 kts | 203° |
| 2026-04-26 06:41 | 41.42812 | 59.73050 | 31216 ft | 435 kts | 203° |
| 2026-04-26 06:41 | 41.39921 | 59.71814 | 30431 ft | 437 kts | 203° |
| 2026-04-26 06:41 | 41.37015 | 59.70573 | 29516 ft | 439 kts | 203° |
| 2026-04-26 06:41 | 41.34100 | 59.69329 | 28542 ft | 441 kts | 203° |
| 2026-04-26 06:42 | 41.31168 | 59.68078 | 27531 ft | 444 kts | 202° |
| 2026-04-26 06:42 | 41.28215 | 59.66819 | 26482 ft | 447 kts | 202° |
| 2026-04-26 06:42 | 41.25236 | 59.65549 | 25513 ft | 449 kts | 202° |
| 2026-04-26 06:42 | 41.22281 | 59.64294 | 24851 ft | 444 kts | 202° |
| 2026-04-26 06:43 | 41.19357 | 59.63055 | 24273 ft | 437 kts | 201° |
| 2026-04-26 06:43 | 41.16474 | 59.61835 | 23594 ft | 432 kts | 201° |
| 2026-04-26 06:43 | 41.13622 | 59.60626 | 22787 ft | 429 kts | 201° |
| 2026-04-26 06:43 | 41.10790 | 59.59426 | 22042 ft | 426 kts | 201° |
| 2026-04-26 06:44 | 41.07983 | 59.58237 | 21330 ft | 421 kts | 201° |
| 2026-04-26 06:44 | 41.05200 | 59.57059 | 20642 ft | 417 kts | 201° |
| 2026-04-26 06:44 | 41.02440 | 59.55892 | 19957 ft | 414 kts | 201° |
| 2026-04-26 06:44 | 40.99705 | 59.54737 | 19288 ft | 411 kts | 201° |
| 2026-04-26 06:45 | 40.97022 | 59.53604 | 18635 ft | 408 kts | 201° |
| 2026-04-26 06:45 | 40.94295 | 59.52453 | 17911 ft | 405 kts | 201° |
| 2026-04-26 06:45 | 40.91653 | 59.51340 | 17245 ft | 401 kts | 201° |
| 2026-04-26 06:45 | 40.89010 | 59.50228 | 16640 ft | 397 kts | 201° |
| 2026-04-26 06:46 | 40.86373 | 59.49118 | 16429 ft | 399 kts | 201° |
| 2026-04-26 06:46 | 40.83732 | 59.48006 | 16315 ft | 398 kts | 201° |
| 2026-04-26 06:46 | 40.81100 | 59.46900 | 16278 ft | 396 kts | 201° |
| 2026-04-26 06:46 | 40.78475 | 59.45798 | 16273 ft | 396 kts | 201° |
| 2026-04-26 06:47 | 40.75851 | 59.44697 | 16268 ft | 396 kts | 201° |
| 2026-04-26 06:47 | 40.73220 | 59.43595 | 16271 ft | 396 kts | 201° |
| 2026-04-26 06:47 | 40.70601 | 59.42499 | 16276 ft | 395 kts | 201° |
| 2026-04-26 06:47 | 40.67979 | 59.41402 | 16274 ft | 395 kts | 201° |
| 2026-04-26 06:48 | 40.65358 | 59.40306 | 16274 ft | 395 kts | 201° |
| 2026-04-26 06:48 | 40.62734 | 59.39211 | 16276 ft | 395 kts | 201° |
| 2026-04-26 06:48 | 40.60104 | 59.38114 | 16276 ft | 395 kts | 201° |
| 2026-04-26 06:48 | 40.57510 | 59.37032 | 16277 ft | 395 kts | 201° |
| 2026-04-26 06:49 | 40.54851 | 59.35925 | 16277 ft | 395 kts | 201° |
| 2026-04-26 06:49 | 40.52257 | 59.34845 | 16277 ft | 395 kts | 201° |
| 2026-04-26 06:49 | 40.49634 | 59.33755 | 16281 ft | 395 kts | 201° |
| 2026-04-26 06:49 | 40.47013 | 59.32666 | 16277 ft | 395 kts | 201° |
| 2026-04-26 06:50 | 40.44384 | 59.31574 | 16282 ft | 395 kts | 201° |
| 2026-04-26 06:50 | 40.41757 | 59.30484 | 16278 ft | 395 kts | 201° |
| 2026-04-26 06:50 | 40.39138 | 59.29399 | 16278 ft | 395 kts | 201° |
| 2026-04-26 06:50 | 40.36518 | 59.28314 | 16280 ft | 395 kts | 201° |
| 2026-04-26 06:51 | 40.33889 | 59.27226 | 16279 ft | 396 kts | 201° |
| 2026-04-26 06:51 | 40.28638 | 59.25056 | 16280 ft | 396 kts | 201° |
| 2026-04-26 06:51 | 40.26011 | 59.23972 | 16281 ft | 396 kts | 201° |
| 2026-04-26 06:52 | 40.23413 | 59.22900 | 16280 ft | 396 kts | 200° |
| 2026-04-26 06:52 | 40.20781 | 59.21816 | 16285 ft | 396 kts | 200° |
| 2026-04-26 06:52 | 40.18175 | 59.20744 | 16076 ft | 387 kts | 200° |
| 2026-04-26 06:52 | 40.15612 | 59.19692 | 15495 ft | 385 kts | 200° |
| 2026-04-26 06:53 | 40.13058 | 59.18643 | 14805 ft | 384 kts | 200° |
| 2026-04-26 06:53 | 40.10500 | 59.17591 | 14116 ft | 384 kts | 200° |
| 2026-04-26 06:53 | 40.07958 | 59.16548 | 13442 ft | 381 kts | 200° |
| 2026-04-26 06:53 | 40.05439 | 59.15515 | 12798 ft | 378 kts | 200° |
| 2026-04-26 06:54 | 40.02939 | 59.14490 | 12469 ft | 379 kts | 200° |
| 2026-04-26 06:54 | 40.00445 | 59.13469 | 12338 ft | 368 kts | 200° |
| 2026-04-26 06:54 | 39.98060 | 59.12498 | 12285 ft | 350 kts | 200° |
| 2026-04-26 06:54 | 39.95789 | 59.11574 | 12275 ft | 333 kts | 201° |
| 2026-04-26 06:55 | 39.93635 | 59.10697 | 12270 ft | 318 kts | 201° |
| 2026-04-26 06:55 | 39.91558 | 59.09848 | 12309 ft | 315 kts | 201° |
| 2026-04-26 06:55 | 39.89432 | 59.08977 | 12307 ft | 316 kts | 201° |
| 2026-04-26 06:55 | 39.87383 | 59.08139 | 12114 ft | 313 kts | 201° |
| 2026-04-26 06:56 | 39.85318 | 59.07296 | 12012 ft | 308 kts | 201° |
| 2026-04-26 06:56 | 39.83265 | 59.06458 | 12001 ft | 312 kts | 201° |
| 2026-04-26 06:56 | 39.81183 | 59.05606 | 12000 ft | 316 kts | 201° |
| 2026-04-26 06:56 | 39.79069 | 59.04745 | 11992 ft | 317 kts | 201° |
| 2026-04-26 06:57 | 39.76972 | 59.03892 | 11982 ft | 316 kts | 201° |
| 2026-04-26 06:57 | 39.74875 | 59.03040 | 11986 ft | 314 kts | 201° |
| 2026-04-26 06:57 | 39.72790 | 59.02194 | 11990 ft | 313 kts | 201° |
| 2026-04-26 06:57 | 39.70720 | 59.01354 | 11990 ft | 313 kts | 200° |
| 2026-04-26 06:58 | 39.68635 | 59.00509 | 11991 ft | 313 kts | 200° |
| 2026-04-26 06:58 | 39.66551 | 58.99664 | 11995 ft | 314 kts | 200° |
| 2026-04-26 06:58 | 39.64466 | 58.98819 | 11991 ft | 315 kts | 200° |
| 2026-04-26 06:58 | 39.62363 | 58.97967 | 11993 ft | 316 kts | 200° |
| 2026-04-26 06:59 | 39.60269 | 58.97120 | 11992 ft | 317 kts | 200° |
| 2026-04-26 06:59 | 39.58162 | 58.96269 | 11996 ft | 317 kts | 200° |
| 2026-04-26 06:59 | 39.56046 | 58.95414 | 11995 ft | 318 kts | 200° |
| 2026-04-26 06:59 | 39.53939 | 58.94563 | 11994 ft | 318 kts | 200° |
| 2026-04-26 07:00 | 39.51823 | 58.93710 | 11987 ft | 318 kts | 200° |
| 2026-04-26 07:00 | 39.49713 | 58.92859 | 11992 ft | 318 kts | 200° |
| 2026-04-26 07:00 | 39.48312 | 58.92295 | 11992 ft | 317 kts | 200° |
| 2026-04-26 07:00 | 39.45490 | 58.91158 | 11995 ft | 317 kts | 200° |
| 2026-04-26 07:01 | 39.43413 | 58.90322 | 11992 ft | 317 kts | 200° |
| 2026-04-26 07:01 | 39.41279 | 58.89465 | 11993 ft | 317 kts | 200° |
| 2026-04-26 07:01 | 39.39202 | 58.88630 | 11991 ft | 317 kts | 200° |
| 2026-04-26 07:01 | 39.37099 | 58.87785 | 11992 ft | 317 kts | 200° |
| 2026-04-26 07:02 | 39.35681 | 58.87216 | 12007 ft | 317 kts | 200° |
| 2026-04-26 07:02 | 39.32891 | 58.86096 | 11992 ft | 316 kts | 200° |
| 2026-04-26 07:02 | 39.30790 | 58.85254 | 11999 ft | 317 kts | 200° |
| 2026-04-26 07:02 | 39.28680 | 58.84408 | 12002 ft | 317 kts | 200° |
| 2026-04-26 07:03 | 39.26573 | 58.83565 | 12004 ft | 317 kts | 200° |
| 2026-04-26 07:03 | 39.24458 | 58.82718 | 11996 ft | 318 kts | 200° |
| 2026-04-26 07:03 | 39.22343 | 58.81872 | 11995 ft | 318 kts | 199° |
| 2026-04-26 07:03 | 39.20232 | 58.81029 | 11993 ft | 318 kts | 199° |
| 2026-04-26 07:04 | 39.18113 | 58.80182 | 11992 ft | 318 kts | 199° |
| 2026-04-26 07:04 | 39.15994 | 58.79336 | 11990 ft | 318 kts | 199° |
| 2026-04-26 07:04 | 39.13908 | 58.78504 | 11993 ft | 318 kts | 199° |
| 2026-04-26 07:04 | 39.11789 | 58.77660 | 11999 ft | 319 kts | 199° |
| 2026-04-26 07:05 | 39.09643 | 58.76805 | 11994 ft | 319 kts | 199° |
| 2026-04-26 07:05 | 39.07553 | 58.75973 | 11995 ft | 319 kts | 199° |
| 2026-04-26 07:05 | 39.05428 | 58.75127 | 11996 ft | 319 kts | 199° |
| 2026-04-26 07:05 | 39.03311 | 58.74285 | 11999 ft | 319 kts | 199° |
| 2026-04-26 07:06 | 39.01194 | 58.73444 | 11991 ft | 319 kts | 199° |
| 2026-04-26 07:06 | 38.99070 | 58.72600 | 11995 ft | 319 kts | 199° |
| 2026-04-26 07:06 | 38.96944 | 58.71756 | 11996 ft | 319 kts | 199° |
| 2026-04-26 07:06 | 38.94824 | 58.70915 | 11999 ft | 319 kts | 199° |
| 2026-04-26 07:07 | 38.92699 | 58.70073 | 11997 ft | 319 kts | 199° |
| 2026-04-26 07:07 | 38.90580 | 58.69233 | 11990 ft | 319 kts | 199° |
| 2026-04-26 07:07 | 38.88454 | 58.68391 | 11996 ft | 319 kts | 199° |
| 2026-04-26 07:07 | 38.86335 | 58.67553 | 11996 ft | 319 kts | 199° |
| 2026-04-26 07:08 | 38.84214 | 58.66713 | 11991 ft | 319 kts | 198° |
| 2026-04-26 07:08 | 38.82087 | 58.65873 | 11989 ft | 319 kts | 198° |
| 2026-04-26 07:08 | 38.79968 | 58.65036 | 11994 ft | 319 kts | 198° |
| 2026-04-26 07:08 | 38.77840 | 58.64214 | 11989 ft | 319 kts | 195° |
| 2026-04-26 07:09 | 38.75634 | 58.63852 | 12004 ft | 321 kts | 184° |
| 2026-04-26 07:09 | 38.73402 | 58.63753 | 11997 ft | 321 kts | 183° |
| 2026-04-26 07:09 | 38.71167 | 58.63696 | 11996 ft | 321 kts | 182° |
| 2026-04-26 07:09 | 38.68933 | 58.63641 | 11991 ft | 322 kts | 182° |
| 2026-04-26 07:10 | 38.62360 | 58.63427 | 11885 ft | 303 kts | 183° |
| 2026-04-26 07:11 | 38.58299 | 58.63269 | 11723 ft | 282 kts | 183° |
| 2026-04-26 07:11 | 38.56353 | 58.63189 | 11508 ft | 278 kts | 183° |
| 2026-04-26 07:11 | 38.54427 | 58.63107 | 11214 ft | 277 kts | 183° |
| 2026-04-26 07:11 | 38.52506 | 58.63026 | 10918 ft | 276 kts | 183° |
| 2026-04-26 07:12 | 38.50589 | 58.62945 | 10646 ft | 275 kts | 183° |
| 2026-04-26 07:12 | 38.48678 | 58.62864 | 10395 ft | 274 kts | 183° |
| 2026-04-26 07:12 | 38.46775 | 58.62783 | 10119 ft | 272 kts | 182° |
| 2026-04-26 07:12 | 38.44882 | 58.62703 | 9831 ft | 271 kts | 182° |
| 2026-04-26 07:13 | 38.42997 | 58.62624 | 9516 ft | 271 kts | 182° |
| 2026-04-26 07:13 | 38.41109 | 58.62543 | 9233 ft | 270 kts | 182° |
| 2026-04-26 07:13 | 38.39869 | 58.62490 | 9042 ft | 269 kts | 182° |
| 2026-04-26 07:13 | 38.37994 | 58.62409 | 8740 ft | 269 kts | 182° |
| 2026-04-26 07:14 | 38.36127 | 58.62330 | 8454 ft | 267 kts | 182° |
| 2026-04-26 07:14 | 38.33675 | 58.62226 | 8087 ft | 266 kts | 182° |
| 2026-04-26 07:14 | 38.31829 | 58.62148 | 7788 ft | 265 kts | 182° |
| 2026-04-26 07:14 | 38.29996 | 58.62070 | 7616 ft | 260 kts | 182° |
| 2026-04-26 07:15 | 38.28379 | 58.62002 | 7456 ft | 258 kts | 182° |
| 2026-04-26 07:15 | 38.26578 | 58.61925 | 7210 ft | 259 kts | 182° |
| 2026-04-26 07:15 | 38.25365 | 58.61874 | 7055 ft | 258 kts | 182° |
| 2026-04-26 07:15 | 38.23591 | 58.61799 | 6819 ft | 257 kts | 182° |
| 2026-04-26 07:16 | 38.21798 | 58.61723 | 6575 ft | 259 kts | 182° |
| 2026-04-26 07:16 | 38.19991 | 58.61647 | 6331 ft | 261 kts | 182° |
| 2026-04-26 07:16 | 38.18168 | 58.61569 | 6079 ft | 262 kts | 182° |
| 2026-04-26 07:16 | 38.16343 | 58.61492 | 5828 ft | 262 kts | 182° |
| 2026-04-26 07:17 | 38.14523 | 58.61415 | 5579 ft | 261 kts | 182° |
| 2026-04-26 07:17 | 38.12715 | 58.61339 | 5337 ft | 260 kts | 182° |
| 2026-04-26 07:17 | 38.10900 | 58.61262 | 5086 ft | 259 kts | 182° |
| 2026-04-26 07:17 | 38.09104 | 58.61186 | 4833 ft | 258 kts | 182° |
| 2026-04-26 07:18 | 38.07322 | 58.61111 | 4571 ft | 256 kts | 182° |
| 2026-04-26 07:18 | 38.05551 | 58.61036 | 4306 ft | 254 kts | 182° |
| 2026-04-26 07:18 | 38.03780 | 58.60961 | 4126 ft | 251 kts | 182° |
| 2026-04-26 07:18 | 38.02077 | 58.60890 | 4070 ft | 241 kts | 182° |
| 2026-04-26 07:19 | 38.00423 | 58.60820 | 3967 ft | 233 kts | 182° |
| 2026-04-26 07:19 | 37.98850 | 58.60754 | 3866 ft | 226 kts | 181° |
| 2026-04-26 07:19 | 37.97807 | 58.60710 | 3825 ft | 219 kts | 181° |
| 2026-04-26 07:19 | 37.95855 | 58.60628 | 3650 ft | 206 kts | 182° |
| 2026-04-26 07:20 | 37.94421 | 58.60447 | 3331 ft | 206 kts | 201° |
| 2026-04-26 07:20 | 37.93329 | 58.59377 | 3020 ft | 203 kts | 241° |
| 2026-04-26 07:20 | 37.92817 | 58.57739 | 2742 ft | 200 kts | 255° |
| 2026-04-26 07:20 | 37.92437 | 58.56043 | 2531 ft | 198 kts | 256° |
| 2026-04-26 07:21 | 37.92085 | 58.54365 | 2522 ft | 196 kts | 261° |
| 2026-04-26 07:21 | 37.92202 | 58.52717 | 2496 ft | 183 kts | 295° |
| 2026-04-26 07:21 | 37.92704 | 58.51256 | 2500 ft | 182 kts | 292° |
| 2026-04-26 07:21 | 37.93226 | 58.49804 | 2496 ft | 180 kts | 298° |
| 2026-04-26 07:22 | 37.93790 | 58.48404 | 2509 ft | 177 kts | 299° |
| 2026-04-26 07:22 | 37.94378 | 58.47045 | 2285 ft | 174 kts | 300° |
| 2026-04-26 07:22 | 37.94952 | 58.45741 | 2078 ft | 168 kts | 300° |
| 2026-04-26 07:22 | 37.95520 | 58.44458 | 1880 ft | 165 kts | 300° |
| 2026-04-26 07:23 | 37.96063 | 58.43230 | 1638 ft | 152 kts | 299° |
| 2026-04-26 07:23 | 37.96540 | 58.42166 | 1565 ft | 127 kts | 301° |
| 2026-04-26 07:23 | 37.96972 | 58.41173 | 1250 ft | 128 kts | 297° |
| 2026-04-26 07:23 | 37.97384 | 58.40200 | 1026 ft | 125 kts | 299° |
| 2026-04-26 07:24 | 37.97818 | 58.39235 | 843 ft | 129 kts | 301° |
| 2026-04-26 07:24 | 37.98273 | 58.38235 | 700 ft | 132 kts | 301° |
| 2026-04-26 07:24 | 37.98692 | 58.37307 | 679 ft | 111 kts | 300° |
| 2026-04-26 07:24 | 37.99006 | 58.36608 | 675 ft | 70 kts | 299° |
| 2026-04-26 07:25 | 37.99188 | 58.36201 | 678 ft | 44 kts | 299° |
| 2026-04-26 07:25 | 37.99328 | 58.35887 | 679 ft | 40 kts | 300° |
| 2026-04-26 07:25 | 37.99455 | 58.35596 | 677 ft | 36 kts | 294° |
| 2026-04-26 07:25 | 37.99556 | 58.35335 | 676 ft | 28 kts | 287° |
| 2026-04-26 07:26 | 37.99581 | 58.35126 | 677 ft | 18 kts | 271° |
| 2026-04-26 07:26 | 37.99542 | 58.34998 | 677 ft | 10 kts | 212° |
| 2026-04-26 07:26 | 37.99484 | 58.35009 | 677 ft | 9 kts | 141° |
| 2026-04-26 07:26 | 37.99454 | 58.35074 | 675 ft | 9 kts | 107° |
| 2026-04-26 07:27 | 37.99448 | 58.35115 | 676 ft | 0 kts | 120° |
| 2026-04-26 07:27 | 37.99444 | 58.35120 | 674 ft | 2 kts | 124° |
| 2026-04-26 07:27 | 37.99427 | 58.35150 | 676 ft | 6 kts | 129° |
| 2026-04-26 07:27 | 37.99393 | 58.35204 | 675 ft | 10 kts | 127° |
| 2026-04-26 07:28 | 37.99350 | 58.35287 | 676 ft | 13 kts | 121° |
| 2026-04-26 07:28 | 37.99302 | 58.35397 | 677 ft | 16 kts | 119° |
| 2026-04-26 07:28 | 37.99244 | 58.35527 | 677 ft | 18 kts | 119° |
| 2026-04-26 07:28 | 37.99178 | 58.35674 | 675 ft | 20 kts | 119° |
| 2026-04-26 07:29 | 37.99106 | 58.35836 | 677 ft | 22 kts | 119° |
| 2026-04-26 07:29 | 37.99028 | 58.36012 | 677 ft | 24 kts | 119° |
| 2026-04-26 07:29 | 37.98947 | 58.36196 | 677 ft | 20 kts | 119° |
| 2026-04-26 07:29 | 37.98880 | 58.36339 | 674 ft | 15 kts | 127° |
| 2026-04-26 07:30 | 37.98807 | 58.36355 | 674 ft | 12 kts | 185° |
| 2026-04-26 07:30 | 37.98744 | 58.36434 | 677 ft | 15 kts | 119° |
| 2026-04-26 07:30 | 37.98688 | 58.36558 | 675 ft | 16 kts | 123° |
| 2026-04-26 07:30 | 37.98592 | 58.36577 | 677 ft | 17 kts | 204° |
| 2026-04-26 07:31 | 37.98486 | 58.36500 | 677 ft | 15 kts | 210° |
| 2026-04-26 07:31 | 37.98437 | 58.36463 | 677 ft | 10 kts | 210° |
| 2026-04-26 07:31 | 37.98376 | 58.36424 | 677 ft | 9 kts | 195° |
| 2026-04-26 07:31 | 37.98313 | 58.36455 | 675 ft | 10 kts | 130° |
| 2026-04-26 07:32 | 37.98285 | 58.36478 | 677 ft | 3 kts | 182° |
| 2026-04-26 07:32 | 37.98255 | 58.36460 | 677 ft | 7 kts | 210° |
| 2026-04-26 07:32 | 37.98226 | 58.36438 | 677 ft | 0 kts | 210° |